Main page
METAR-TAF:

METAR-TAF

Airports :

Cologne, Germany

Cologne Bonn Airport

latitude: 50-52N, longitude: 007-10E, elevation: 91 m

Current weather observation

The report was made 33 minutes ago, at 21:20 UTC
Wind 2 kt from variable directions
Temperature 6°C
Humidity 93%
Pressure 1016 hPa
Visibility 10 km or more
Broken clouds at a height of 3700 ft
Shallow fog

METAR: EDDK 282120Z VRB02KT 9999 MIFG BKN037 06/05 Q1016 NOSIG

Time: 23:53 (21:53 UTC)

Forecast

The report was made 4 hours and 53 minutes ago, at 17:00 UTC
Forecast valid from 28 at 18 UTC to 29 at 24 UTC
Wind 7 kt from the West
Visibility 10 km or more
Scattered clouds at a height of 4000 ft
Becoming
from 28 at 19 UTC to 28 at 22 UTC
Wind 3 kt from variable directions
Becoming
from 29 at 07 UTC to 29 at 10 UTC
Wind 5 kt from the Northwest
Becoming
from 29 at 15 UTC to 29 at 18 UTC
Wind 5 kt from the East/Northeast

TAF: EDDK 281700Z 2818/2924 28007KT 9999 SCT040 BECMG 2819/2822 VRB03KT BECMG 2907/2910 32005KT BECMG 2915/2918 06005KT

Weather observations and forecasts of more than 4000 airports (METAR and TAF reports).

The available stations are represented by yellow and red dots on the map.

Hover mouse over dot to see the name of the station.

Then click to see weather observations and forecasts.

To change the map : click on the green buttons with a black cross to zoom in, on the green button with a dash to zoom out, or on the green arrows for adjacent maps.


METAR-TAF: